createdAt,value
2022-10-22T00:00:13.355Z,3.70
2022-10-22T00:02:40.178Z,3.67
2022-10-22T00:05:07.225Z,3.95
2022-10-22T00:07:33.971Z,3.08
2022-10-22T00:10:00.729Z,4.78
2022-10-22T00:12:27.565Z,2.25
2022-10-22T00:14:55.327Z,4.28
2022-10-22T00:17:22.120Z,1.90
2022-10-22T00:19:48.893Z,2.70
2022-10-22T00:22:15.651Z,2.05
2022-10-22T00:24:42.421Z,3.35
2022-10-22T00:27:10.378Z,1.48
2022-10-22T00:29:37.245Z,3.90
2022-10-22T00:32:04.297Z,1.75
2022-10-22T00:34:31.081Z,2.28
2022-10-22T00:36:57.838Z,3.05
2022-10-22T00:39:25.911Z,4.05
2022-10-22T00:41:53.573Z,2.08
2022-10-22T00:44:57.879Z,3.25
2022-10-22T00:47:25.855Z,2.60
2022-10-22T00:49:52.650Z,5.32
2022-10-22T00:52:19.593Z,6.03
2022-10-22T00:54:46.349Z,2.40
2022-10-22T00:57:13.088Z,3.15
2022-10-22T00:59:39.809Z,2.97
2022-10-22T01:02:06.557Z,3.85
2022-10-22T01:04:33.278Z,2.33
2022-10-22T01:07:00.027Z,5.43
2022-10-22T01:09:38.850Z,3.70
2022-10-22T01:12:22.746Z,3.55
2022-10-22T01:15:11.056Z,3.35
2022-10-22T01:17:44.174Z,4.25
2022-10-22T01:20:38.306Z,4.00
2022-10-22T01:23:38.097Z,1.88
2022-10-22T01:26:32.596Z,2.08
2022-10-22T01:29:01.459Z,2.03
2022-10-22T01:31:34.439Z,3.53
2022-10-22T01:34:01.163Z,2.83
2022-10-22T01:36:30.241Z,1.85
2022-10-22T01:38:58.646Z,2.03
2022-10-22T01:41:26.410Z,2.17
2022-10-22T01:43:53.117Z,3.03
2022-10-22T01:46:23.142Z,2.47
2022-10-22T01:49:12.678Z,2.35
2022-10-22T01:51:58.825Z,1.73
2022-10-22T01:54:35.640Z,2.75
2022-10-22T01:57:23.964Z,3.70
2022-10-22T02:03:00.518Z,2.53
2022-10-22T02:05:41.087Z,4.88
2022-10-22T02:08:12.322Z,2.97
2022-10-22T02:10:40.060Z,1.63
2022-10-22T02:13:12.000Z,2.58
2022-10-22T02:15:38.725Z,3.50
2022-10-22T02:18:05.583Z,5.60
2022-10-22T02:20:33.523Z,2.10
2022-10-22T02:23:01.468Z,4.00
2022-10-22T02:25:32.484Z,2.67
2022-10-22T02:28:04.906Z,5.07
2022-10-22T02:30:33.087Z,3.10
2022-10-22T02:33:21.567Z,2.10
2022-10-22T02:35:48.291Z,4.32
2022-10-22T02:38:15.046Z,2.65
2022-10-22T02:40:41.825Z,3.03
2022-10-22T02:43:08.546Z,4.18
2022-10-22T02:45:35.414Z,3.35
2022-10-22T02:48:03.673Z,3.20
2022-10-22T02:50:30.439Z,1.95
2022-10-22T02:52:57.190Z,4.15
2022-10-22T02:55:23.931Z,2.60
2022-10-22T02:57:50.656Z,2.20
2022-10-22T03:00:17.461Z,4.63
2022-10-22T03:02:44.186Z,3.47
2022-10-22T03:05:10.909Z,2.58
2022-10-22T03:07:37.876Z,2.72
2022-10-22T03:10:05.392Z,4.78
2022-10-22T03:12:32.917Z,2.95
2022-10-22T03:14:59.658Z,3.42
2022-10-22T03:17:26.393Z,4.95
2022-10-22T03:19:53.116Z,3.03
2022-10-22T03:22:27.814Z,6.28
2022-10-22T03:24:56.898Z,2.97
2022-10-22T03:27:23.682Z,3.03
2022-10-22T03:29:51.163Z,4.82
2022-10-22T03:32:18.094Z,2.53
2022-10-22T03:34:44.800Z,3.40
2022-10-22T03:37:11.517Z,3.22
2022-10-22T03:39:38.303Z,2.75
2022-10-22T03:42:06.320Z,4.30
2022-10-22T03:44:34.275Z,2.80
2022-10-22T03:47:02.687Z,4.55
2022-10-22T03:49:29.772Z,3.03
2022-10-22T03:51:56.519Z,4.13
2022-10-22T03:54:23.228Z,3.83
2022-10-22T03:56:50.010Z,3.58
2022-10-22T03:59:16.724Z,3.45
2022-10-22T04:01:43.505Z,2.80
2022-10-22T04:04:10.199Z,3.13
2022-10-22T04:06:37.568Z,2.65
2022-10-22T04:09:04.368Z,5.28
2022-10-22T04:11:31.160Z,2.58
2022-10-22T04:13:57.907Z,2.28
2022-10-22T04:16:27.401Z,3.70
2022-10-22T04:18:56.789Z,2.58
2022-10-22T04:21:23.521Z,2.53
2022-10-22T04:23:51.613Z,2.60
2022-10-22T04:26:18.693Z,3.92
2022-10-22T04:28:45.981Z,4.10
2022-10-22T04:31:14.273Z,2.45
2022-10-22T04:33:41.187Z,6.80
2022-10-22T04:36:10.336Z,5.85
2022-10-22T04:38:38.639Z,2.90
2022-10-22T04:41:11.025Z,2.15
2022-10-22T04:43:39.250Z,3.92
2022-10-22T04:46:07.663Z,2.25
2022-10-22T04:48:38.269Z,5.50
2022-10-22T04:51:06.829Z,4.53
2022-10-22T04:53:35.653Z,4.70
2022-10-22T04:56:22.717Z,3.97
2022-10-22T04:58:50.430Z,5.13
2022-10-22T05:01:27.534Z,3.28
2022-10-22T05:03:56.140Z,5.63
2022-10-22T05:06:23.449Z,4.68
2022-10-22T05:08:55.488Z,3.17
2022-10-22T05:11:24.235Z,1.65
2022-10-22T05:13:51.339Z,4.88
2022-10-22T05:16:18.375Z,3.75
2022-10-22T05:18:45.656Z,2.45
2022-10-22T05:21:17.000Z,5.13
2022-10-22T05:23:44.532Z,5.47
2022-10-22T05:26:13.031Z,3.88
2022-10-22T05:28:41.524Z,8.60
2022-10-22T05:31:10.416Z,3.92
2022-10-22T05:33:37.962Z,7.53
2022-10-22T05:36:05.276Z,7.18
2022-10-22T05:38:32.760Z,11.80
2022-10-22T05:41:06.473Z,7.05
2022-10-22T05:43:33.379Z,3.38
2022-10-22T05:46:11.867Z,4.43
2022-10-22T05:48:38.777Z,4.90
2022-10-22T05:51:11.274Z,5.85
2022-10-22T05:53:42.979Z,7.90
2022-10-22T05:56:13.264Z,4.63
2022-10-22T05:58:41.529Z,5.10
2022-10-22T06:01:16.193Z,4.65
2022-10-22T06:03:43.458Z,3.30
2022-10-22T06:06:38.735Z,5.40
2022-10-22T06:09:28.521Z,7.03
2022-10-22T06:11:56.500Z,3.63
2022-10-22T06:14:23.519Z,9.55
2022-10-22T06:16:50.663Z,7.15
2022-10-22T06:19:19.096Z,4.30
2022-10-22T06:21:45.962Z,8.68
2022-10-22T06:24:12.772Z,4.93
2022-10-22T06:26:40.900Z,7.38
2022-10-22T06:29:07.738Z,6.15
2022-10-22T06:31:37.280Z,5.30
2022-10-22T06:34:08.429Z,4.07
2022-10-22T06:36:35.714Z,5.82
2022-10-22T06:39:02.663Z,5.30
2022-10-22T06:41:29.788Z,7.70
2022-10-22T06:43:57.565Z,7.32
2022-10-22T06:46:24.800Z,5.95
2022-10-22T06:48:53.516Z,4.47
2022-10-22T06:51:21.185Z,16.65
2022-10-22T06:53:48.062Z,8.60
2022-10-22T06:56:16.868Z,8.57
2022-10-22T06:58:43.618Z,12.90
2022-10-22T07:01:13.278Z,9.32
2022-10-22T07:03:41.330Z,10.18
2022-10-22T07:06:12.592Z,8.07
2022-10-22T07:08:41.545Z,10.20
2022-10-22T07:11:17.129Z,6.93
2022-10-22T07:13:44.147Z,12.65
2022-10-22T07:16:12.148Z,7.97
2022-10-22T07:18:40.563Z,9.32
2022-10-22T07:21:07.503Z,4.18
2022-10-22T07:23:34.261Z,9.35
2022-10-22T07:26:02.804Z,7.13
2022-10-22T07:28:30.618Z,7.47
2022-10-22T07:30:57.349Z,4.90
2022-10-22T07:33:24.134Z,7.65
2022-10-22T07:35:50.917Z,7.65
2022-10-22T07:38:17.695Z,8.43
2022-10-22T07:40:44.477Z,10.43
2022-10-22T07:43:11.707Z,5.07
2022-10-22T07:45:39.649Z,6.32
2022-10-22T07:48:06.770Z,4.97
2022-10-22T07:50:33.572Z,8.60
2022-10-22T07:53:00.328Z,6.95
2022-10-22T07:55:27.112Z,6.63
2022-10-22T07:57:54.072Z,8.63
2022-10-22T08:00:23.213Z,6.40
2022-10-22T08:02:52.167Z,7.22
2022-10-22T08:05:18.942Z,5.82
2022-10-22T08:07:45.664Z,11.38
2022-10-22T08:10:12.708Z,4.32
2022-10-22T08:12:41.669Z,5.20
2022-10-22T08:15:10.468Z,5.32
2022-10-22T08:17:37.593Z,5.13
2022-10-22T08:20:05.077Z,7.90
2022-10-22T08:22:32.476Z,5.95
2022-10-22T08:25:00.576Z,6.53
2022-10-22T08:27:27.888Z,6.75
2022-10-22T08:29:55.028Z,7.72
2022-10-22T08:32:22.320Z,5.72
2022-10-22T08:34:49.437Z,4.85
2022-10-22T08:37:17.867Z,4.60
2022-10-22T08:39:45.374Z,8.57
2022-10-22T08:42:36.404Z,7.95
2022-10-22T08:45:24.804Z,8.98
2022-10-22T08:48:07.054Z,7.53
2022-10-22T08:50:47.614Z,8.00
2022-10-22T08:53:22.375Z,9.10
2022-10-22T08:55:50.058Z,6.65
2022-10-22T08:58:35.007Z,7.30
2022-10-22T09:01:16.483Z,8.95
2022-10-22T09:03:52.027Z,7.72
2022-10-22T09:06:24.345Z,6.13
2022-10-22T09:08:51.557Z,5.75
2022-10-22T09:11:34.352Z,7.20
2022-10-22T09:14:01.604Z,4.93
2022-10-22T09:16:37.880Z,9.25
2022-10-22T09:19:26.426Z,4.47
2022-10-22T09:21:59.357Z,6.93
2022-10-22T09:24:38.936Z,7.20
2022-10-22T09:27:15.972Z,11.27
2022-10-22T09:29:43.341Z,12.55
2022-10-22T09:32:11.160Z,8.57
2022-10-22T09:34:38.698Z,11.38
2022-10-22T09:37:08.067Z,7.32
2022-10-22T09:39:40.748Z,12.38
2022-10-22T09:42:08.538Z,5.00
2022-10-22T09:44:37.461Z,7.47
2022-10-22T09:47:13.184Z,7.40
2022-10-22T09:49:40.267Z,7.10
2022-10-22T09:52:12.219Z,5.28
2022-10-22T09:54:41.206Z,5.82
2022-10-22T09:57:22.163Z,9.10
2022-10-22T09:59:49.885Z,7.18
2022-10-22T10:02:37.585Z,10.63
2022-10-22T10:05:06.202Z,8.65
2022-10-22T10:07:33.394Z,5.20
2022-10-22T10:10:00.193Z,6.50
2022-10-22T10:12:32.832Z,4.65
2022-10-22T10:15:23.301Z,4.70
2022-10-22T10:18:08.660Z,5.78
2022-10-22T10:20:45.930Z,4.70
2022-10-22T10:23:32.449Z,5.45
2022-10-22T10:26:01.909Z,5.00
2022-10-22T10:28:50.580Z,5.28
2022-10-22T10:32:07.886Z,5.88
2022-10-22T10:34:57.151Z,4.38
2022-10-22T10:37:42.822Z,4.80
2022-10-22T10:40:18.275Z,6.50
2022-10-22T10:42:58.594Z,6.30
2022-10-22T10:45:28.483Z,4.32
2022-10-22T10:48:02.941Z,2.80
2022-10-22T10:50:34.938Z,5.20
2022-10-22T10:53:35.832Z,3.65
2022-10-22T10:56:21.172Z,4.90
2022-10-22T10:59:10.898Z,4.80
2022-10-22T11:01:52.423Z,6.57
2022-10-22T11:05:00.578Z,4.28
2022-10-22T11:07:35.396Z,3.60
2022-10-22T11:10:28.810Z,4.03
2022-10-22T11:13:32.872Z,7.38
2022-10-22T11:16:21.762Z,5.00
2022-10-22T11:18:53.571Z,3.17
2022-10-22T11:21:45.572Z,3.13
2022-10-22T11:24:52.059Z,5.40
2022-10-22T11:27:39.555Z,4.88
2022-10-22T11:30:13.990Z,2.83
2022-10-22T11:32:43.478Z,3.10
2022-10-22T11:35:23.483Z,5.95
2022-10-22T11:37:52.488Z,2.53
2022-10-22T11:40:59.235Z,3.47
2022-10-22T11:43:31.510Z,5.40
2022-10-22T11:46:22.593Z,3.10
2022-10-22T11:49:18.003Z,4.45
2022-10-22T11:51:45.155Z,4.32
2022-10-22T11:54:43.745Z,4.93
2022-10-22T11:57:16.661Z,3.45
2022-10-22T11:59:50.846Z,8.95
2022-10-22T12:02:50.852Z,2.13
2022-10-22T12:05:38.996Z,3.25
2022-10-22T12:08:17.294Z,5.57
2022-10-22T12:11:08.792Z,3.95
2022-10-22T12:14:00.351Z,5.95
2022-10-22T12:16:37.941Z,14.68
2022-10-22T12:19:18.861Z,10.10
2022-10-22T12:21:49.328Z,6.72
2022-10-22T12:24:18.211Z,10.82
2022-10-22T12:26:47.223Z,10.15
2022-10-22T12:29:16.326Z,7.40
2022-10-22T12:31:45.881Z,5.97
2022-10-22T12:34:17.884Z,5.32
2022-10-22T12:36:47.504Z,3.60
2022-10-22T12:39:19.155Z,5.75
2022-10-22T12:41:46.628Z,2.78
2022-10-22T12:44:16.532Z,4.13
2022-10-22T12:46:45.675Z,3.88
2022-10-22T12:49:16.804Z,4.68
2022-10-22T12:51:44.203Z,5.32
2022-10-22T12:54:22.826Z,4.50
2022-10-22T12:56:49.620Z,6.00
2022-10-22T12:59:23.129Z,7.80
2022-10-22T13:01:50.220Z,5.30
2022-10-22T13:04:21.204Z,3.15
2022-10-22T13:06:49.537Z,6.20
2022-10-22T13:09:27.409Z,3.92
2022-10-22T13:11:58.169Z,4.57
2022-10-22T13:14:29.762Z,3.95
2022-10-22T13:17:09.877Z,2.40
2022-10-22T13:19:37.604Z,5.13
2022-10-22T13:22:04.350Z,1.88
2022-10-22T13:24:31.155Z,1.67
2022-10-22T13:26:57.909Z,3.47
2022-10-22T13:29:24.624Z,5.03
2022-10-22T13:31:52.463Z,4.72
2022-10-22T13:34:23.565Z,3.22
2022-10-22T13:36:50.407Z,3.88
2022-10-22T13:39:21.976Z,3.80
2022-10-22T13:41:50.572Z,5.00
2022-10-22T13:44:18.570Z,3.97
2022-10-22T13:46:47.351Z,3.35
2022-10-22T13:49:18.920Z,6.05
2022-10-22T13:51:46.788Z,8.82
2022-10-22T13:54:19.270Z,6.68
2022-10-22T13:56:47.617Z,7.50
2022-10-22T13:59:16.211Z,4.07
2022-10-22T14:01:46.289Z,5.22
2022-10-22T14:04:13.265Z,6.95
2022-10-22T14:06:39.989Z,4.55
2022-10-22T14:09:10.492Z,7.65
2022-10-22T14:11:37.329Z,4.65
2022-10-22T14:14:08.598Z,5.38
2022-10-22T14:16:35.602Z,6.90
2022-10-22T14:19:02.384Z,5.35
2022-10-22T14:21:35.480Z,5.22
2022-10-22T14:24:02.208Z,4.35
2022-10-22T14:26:31.431Z,4.15
2022-10-22T14:29:13.890Z,3.03
2022-10-22T14:34:13.766Z,5.80
2022-10-22T14:36:44.253Z,4.18
2022-10-22T14:39:11.612Z,4.43
2022-10-22T14:41:38.386Z,6.45
2022-10-22T14:44:05.181Z,3.10
2022-10-22T14:46:31.969Z,6.72
2022-10-22T14:48:58.790Z,4.60
2022-10-22T14:51:25.557Z,3.42
2022-10-22T14:53:52.288Z,3.58
2022-10-22T14:56:24.918Z,5.75
2022-10-22T14:58:51.755Z,6.72
2022-10-22T15:01:19.660Z,5.53
2022-10-22T15:03:46.562Z,4.93
2022-10-22T15:06:13.739Z,2.90
2022-10-22T15:08:40.569Z,4.32
2022-10-22T15:11:12.007Z,3.97
2022-10-22T15:13:39.377Z,5.43
2022-10-22T15:16:06.809Z,9.73
2022-10-22T15:18:33.524Z,5.75
2022-10-22T15:21:02.401Z,2.47
2022-10-22T15:23:29.210Z,5.07
2022-10-22T15:25:55.962Z,2.30
2022-10-22T15:28:23.204Z,3.03
2022-10-22T15:30:56.939Z,4.22
2022-10-22T15:33:23.902Z,2.80
2022-10-22T15:35:50.697Z,4.53
2022-10-22T15:38:18.644Z,3.40
2022-10-22T15:40:45.937Z,3.42
2022-10-22T15:43:13.192Z,3.05
2022-10-22T15:45:40.036Z,7.05
2022-10-22T15:48:07.035Z,6.32
2022-10-22T15:50:39.216Z,11.43
2022-10-22T15:53:06.028Z,8.73
2022-10-22T15:55:32.775Z,6.57
2022-10-22T15:58:01.930Z,9.80
2022-10-22T16:00:30.979Z,7.10
2022-10-22T16:02:57.797Z,11.10
2022-10-22T16:05:30.185Z,12.05
2022-10-22T16:07:57.105Z,11.50
2022-10-22T16:10:24.443Z,12.15
2022-10-22T16:12:54.543Z,6.57
2022-10-22T16:15:22.509Z,7.60
2022-10-22T16:17:49.232Z,8.98
2022-10-22T16:20:16.027Z,4.72
2022-10-22T16:22:42.996Z,13.40
2022-10-22T16:25:10.045Z,11.23
2022-10-22T16:27:37.851Z,15.15
2022-10-22T16:30:05.027Z,6.47
2022-10-22T16:32:31.735Z,6.05
2022-10-22T16:34:59.044Z,9.35
2022-10-22T16:37:25.761Z,13.70
2022-10-22T16:39:53.702Z,12.70
2022-10-22T16:42:20.443Z,12.38
2022-10-22T16:44:47.164Z,9.40
2022-10-22T16:47:13.912Z,7.32
2022-10-22T16:49:40.672Z,11.00
2022-10-22T16:52:07.402Z,8.82
2022-10-22T16:54:34.127Z,12.60
2022-10-22T16:57:00.843Z,11.23
2022-10-22T16:59:27.595Z,12.57
2022-10-22T17:01:55.067Z,10.55
2022-10-22T17:04:23.885Z,11.30
2022-10-22T17:06:50.651Z,12.18
2022-10-22T17:09:17.452Z,6.47
2022-10-22T17:11:45.033Z,7.53
2022-10-22T17:14:11.838Z,10.20
2022-10-22T17:16:38.589Z,6.45
2022-10-22T17:19:06.047Z,9.10
2022-10-22T17:21:33.960Z,10.85
2022-10-22T17:24:00.853Z,10.63
2022-10-22T17:26:27.750Z,9.85
2022-10-22T17:28:57.715Z,7.32
2022-10-22T17:31:26.990Z,10.05
2022-10-22T17:33:55.534Z,12.85
2022-10-22T17:36:23.569Z,9.23
2022-10-22T17:38:56.009Z,5.82
2022-10-22T17:41:28.211Z,10.93
2022-10-22T17:43:56.574Z,7.60
2022-10-22T17:46:26.469Z,7.07
2022-10-22T17:48:59.117Z,8.75
2022-10-22T17:51:27.138Z,5.15
2022-10-22T17:53:54.747Z,4.13
2022-10-22T17:56:24.363Z,8.45
2022-10-22T17:58:52.023Z,8.00
2022-10-22T18:01:48.858Z,19.80
2022-10-22T18:04:19.139Z,7.22
2022-10-22T18:06:47.090Z,11.13
2022-10-22T18:09:18.747Z,16.63
2022-10-22T18:11:46.681Z,5.35
2022-10-22T18:14:13.444Z,11.38
2022-10-22T18:16:40.416Z,10.52
2022-10-22T18:19:07.223Z,10.23
2022-10-22T18:21:33.919Z,10.48
2022-10-22T18:24:00.661Z,10.38
2022-10-22T18:26:28.508Z,6.13
2022-10-22T18:28:57.555Z,8.98
2022-10-22T18:31:28.419Z,11.90
2022-10-22T18:33:57.863Z,7.65
2022-10-22T18:36:27.350Z,7.80
2022-10-22T18:38:58.953Z,5.50
2022-10-22T18:41:26.847Z,9.77
2022-10-22T18:43:54.757Z,7.57
2022-10-22T18:46:22.073Z,12.45
2022-10-22T18:48:48.827Z,7.75
2022-10-22T18:51:15.647Z,9.95
2022-10-22T18:53:44.182Z,14.50
2022-10-22T18:56:13.347Z,13.95
2022-10-22T18:58:40.818Z,13.05
2022-10-22T19:01:12.361Z,12.63
2022-10-22T19:03:39.095Z,9.57
2022-10-22T19:06:06.182Z,9.80
2022-10-22T19:08:33.027Z,6.15
2022-10-22T19:11:00.147Z,15.32
2022-10-22T19:13:27.511Z,9.15
2022-10-22T19:15:54.352Z,9.23
2022-10-22T19:18:21.080Z,7.00
2022-10-22T19:20:49.006Z,5.63
2022-10-22T19:23:19.936Z,7.25
2022-10-22T19:25:47.554Z,8.30
2022-10-22T19:28:14.259Z,8.48
2022-10-22T19:30:44.560Z,11.98
2022-10-22T19:33:11.350Z,16.85
2022-10-22T19:35:38.164Z,12.10
2022-10-22T19:38:04.912Z,7.95
2022-10-22T19:40:31.684Z,5.97
2022-10-22T19:43:00.275Z,10.63
2022-10-22T19:45:27.084Z,6.10
2022-10-22T19:47:53.841Z,7.72
2022-10-22T19:50:20.590Z,6.57
2022-10-22T19:52:47.330Z,9.00
2022-10-22T19:55:14.132Z,7.28
2022-10-22T19:57:41.112Z,7.65
2022-10-22T20:00:08.729Z,5.60
2022-10-22T20:02:35.703Z,7.72
2022-10-22T20:05:03.082Z,6.63
2022-10-22T20:07:30.805Z,6.22
2022-10-22T20:09:57.533Z,3.25
2022-10-22T20:12:25.542Z,3.00
2022-10-22T20:14:53.859Z,5.70
2022-10-22T20:17:20.609Z,2.40
2022-10-22T20:19:47.315Z,7.63
2022-10-22T20:22:17.770Z,3.10
2022-10-22T20:24:45.582Z,5.13
2022-10-22T20:27:12.914Z,7.68
2022-10-22T20:29:39.675Z,4.22
2022-10-22T20:32:08.743Z,8.43
2022-10-22T20:34:35.767Z,3.72
2022-10-22T20:37:02.577Z,4.28
2022-10-22T20:39:30.359Z,3.85
2022-10-22T20:41:57.265Z,3.45
2022-10-22T20:44:23.989Z,3.60
2022-10-22T20:46:51.718Z,3.47
2022-10-22T20:49:18.896Z,3.75
2022-10-22T20:51:45.930Z,6.03
2022-10-22T20:54:12.929Z,4.10
2022-10-22T20:56:40.326Z,9.57
2022-10-22T20:59:08.698Z,5.82
2022-10-22T21:01:41.077Z,4.55
2022-10-22T21:04:07.973Z,5.97
2022-10-22T21:06:37.988Z,4.03
2022-10-22T21:09:08.564Z,2.70
2022-10-22T21:11:35.843Z,4.85
2022-10-22T21:14:04.094Z,3.58
2022-10-22T21:16:30.916Z,3.30
2022-10-22T21:18:57.693Z,5.43
2022-10-22T21:21:24.490Z,2.28
2022-10-22T21:23:51.328Z,4.15
2022-10-22T21:26:18.919Z,3.65
2022-10-22T21:28:45.750Z,5.45
2022-10-22T21:31:18.682Z,4.57
2022-10-22T21:33:45.483Z,6.45
2022-10-22T21:36:12.209Z,4.68
2022-10-22T21:38:39.019Z,2.42
2022-10-22T21:41:10.608Z,3.90
2022-10-22T21:43:37.962Z,2.28
2022-10-22T21:46:15.559Z,3.20
2022-10-22T21:48:42.347Z,4.07
2022-10-22T21:51:10.760Z,3.40
2022-10-22T21:53:37.630Z,2.70
2022-10-22T21:56:06.155Z,4.68
2022-10-22T21:58:37.029Z,2.13
2022-10-22T22:01:05.846Z,4.82
2022-10-22T22:03:32.703Z,3.55
2022-10-22T22:06:05.110Z,2.10
2022-10-22T22:08:32.508Z,3.85
2022-10-22T22:11:19.381Z,5.38
2022-10-22T22:13:47.211Z,3.42
2022-10-22T22:16:16.506Z,3.97
2022-10-22T22:18:43.253Z,2.85
2022-10-22T22:21:11.597Z,4.00
2022-10-22T22:23:39.579Z,3.90
2022-10-22T22:26:07.637Z,4.20
2022-10-22T22:28:34.526Z,4.30
2022-10-22T22:31:01.433Z,3.88
2022-10-22T22:33:28.242Z,4.22
2022-10-22T22:35:58.720Z,4.63
2022-10-22T22:38:25.475Z,3.30
2022-10-22T22:40:52.192Z,2.72
2022-10-22T22:43:18.949Z,4.18
2022-10-22T22:45:45.667Z,4.28
2022-10-22T22:48:12.377Z,3.45
2022-10-22T22:50:39.773Z,2.88
2022-10-22T22:53:06.724Z,4.55
2022-10-22T22:55:33.962Z,3.80
2022-10-22T22:58:00.687Z,5.22
2022-10-22T23:00:27.448Z,3.55
2022-10-22T23:02:55.517Z,4.10
2022-10-22T23:05:22.271Z,3.97
2022-10-22T23:07:49.107Z,3.95
2022-10-22T23:10:15.915Z,4.72
2022-10-22T23:12:42.914Z,5.75
2022-10-22T23:15:11.349Z,3.55
2022-10-22T23:17:39.389Z,3.50
2022-10-22T23:20:07.529Z,2.90
2022-10-22T23:22:34.319Z,3.72
2022-10-22T23:25:01.165Z,4.22
2022-10-22T23:27:27.888Z,6.97
2022-10-22T23:29:54.607Z,1.73
2022-10-22T23:32:21.349Z,3.75
2022-10-22T23:34:48.101Z,5.78
2022-10-22T23:37:14.839Z,2.60
2022-10-22T23:39:42.409Z,4.82
2022-10-22T23:42:09.155Z,4.10
2022-10-22T23:44:35.896Z,4.32
2022-10-22T23:47:02.647Z,4.60
2022-10-22T23:49:29.348Z,4.85
2022-10-22T23:51:56.067Z,2.55
2022-10-22T23:54:22.770Z,3.63
2022-10-22T23:56:49.533Z,4.03
2022-10-22T23:59:16.441Z,3.55
